createdAt,value
2022-09-01T00:00:13.775Z,14.94
2022-09-01T00:02:43.232Z,14.57
2022-09-01T00:05:12.822Z,14.75
2022-09-01T00:07:42.132Z,14.73
2022-09-01T00:10:11.129Z,14.67
2022-09-01T00:12:39.254Z,13.16
2022-09-01T00:15:10.580Z,14.65
2022-09-01T00:17:38.568Z,14.59
2022-09-01T00:20:07.740Z,14.53
2022-09-01T00:22:35.761Z,12.48
2022-09-01T00:25:06.576Z,12.99
2022-09-01T00:27:34.535Z,13.74
2022-09-01T00:30:02.544Z,14.27
2022-09-01T00:32:30.691Z,13.81
2022-09-01T00:34:58.645Z,14.20
2022-09-01T00:37:26.717Z,14.16
2022-09-01T00:39:54.611Z,13.47
2022-09-01T00:42:25.010Z,13.53
2022-09-01T00:44:53.124Z,13.46
2022-09-01T00:47:21.022Z,13.85
2022-09-01T00:49:52.024Z,12.34
2022-09-01T00:52:23.436Z,11.75
2022-09-01T00:54:54.936Z,11.60
2022-09-01T00:57:25.147Z,13.83
2022-09-01T00:59:57.686Z,11.87
2022-09-01T01:02:26.675Z,13.93
2022-09-01T01:04:59.451Z,12.01
2022-09-01T01:07:29.535Z,13.91
2022-09-01T01:09:58.182Z,12.07
2022-09-01T01:12:28.117Z,13.09
2022-09-01T01:14:56.059Z,13.84
2022-09-01T01:17:24.492Z,13.96
2022-09-01T01:20:13.614Z,13.43
2022-09-01T01:23:06.405Z,13.63
2022-09-01T01:25:42.148Z,13.72
2022-09-01T01:28:16.586Z,13.87
2022-09-01T01:30:51.036Z,13.83
2022-09-01T01:33:20.789Z,13.80
2022-09-01T01:35:50.584Z,13.73
2022-09-01T01:38:22.696Z,12.22
2022-09-01T01:40:56.233Z,13.80
2022-09-01T01:43:27.492Z,13.26
2022-09-01T01:45:59.241Z,13.74
2022-09-01T01:48:34.563Z,13.72
2022-09-01T01:51:03.131Z,13.81
2022-09-01T01:53:32.420Z,12.86
2022-09-01T01:56:02.319Z,13.39
2022-09-01T01:58:35.442Z,13.79
2022-09-01T02:01:10.809Z,12.03
2022-09-01T02:03:39.887Z,13.41
2022-09-01T02:06:09.672Z,13.75
2022-09-01T02:08:39.638Z,13.77
2022-09-01T02:11:09.775Z,13.60
2022-09-01T02:13:37.677Z,13.58
2022-09-01T02:16:12.050Z,11.78
2022-09-01T02:18:44.397Z,13.48
2022-09-01T02:21:18.313Z,13.63
2022-09-01T02:23:48.747Z,13.62
2022-09-01T02:26:19.220Z,12.58
2022-09-01T02:28:54.789Z,13.57
2022-09-01T02:31:29.098Z,13.53
2022-09-01T02:34:01.080Z,13.28
2022-09-01T02:36:32.770Z,13.46
2022-09-01T02:39:00.935Z,12.83
2022-09-01T02:41:34.525Z,12.67
2022-09-01T02:44:03.978Z,11.51
2022-09-01T02:46:32.571Z,13.08
2022-09-01T02:49:04.475Z,12.42
2022-09-01T02:51:33.349Z,13.21
2022-09-01T02:54:01.880Z,13.18
2022-09-01T02:56:31.445Z,13.14
2022-09-01T02:59:01.836Z,11.96
2022-09-01T03:01:33.975Z,11.51
2022-09-01T03:04:05.982Z,12.44
2022-09-01T03:06:36.367Z,12.85
2022-09-01T03:09:08.569Z,11.38
2022-09-01T03:11:42.114Z,10.93
2022-09-01T03:14:10.842Z,12.55
2022-09-01T03:16:40.280Z,11.93
2022-09-01T03:19:09.615Z,12.77
2022-09-01T03:21:39.869Z,9.96
2022-09-01T03:24:09.110Z,12.63
2022-09-01T03:26:38.089Z,12.26
2022-09-01T03:29:08.652Z,11.53
2022-09-01T03:31:37.883Z,11.82
2022-09-01T03:34:10.855Z,11.06
2022-09-01T03:36:50.426Z,10.68
2022-09-01T03:39:29.635Z,12.51
2022-09-01T03:41:58.451Z,12.18
2022-09-01T03:44:28.597Z,11.22
2022-09-01T03:46:58.575Z,11.13
2022-09-01T03:49:28.579Z,12.39
2022-09-01T03:51:58.711Z,12.12
2022-09-01T03:54:30.313Z,11.50
2022-09-01T03:57:00.646Z,10.67
2022-09-01T03:59:31.779Z,10.27
2022-09-01T04:02:02.788Z,10.82
2022-09-01T04:04:32.992Z,8.78
2022-09-01T04:07:02.043Z,10.84
2022-09-01T04:09:35.221Z,10.03
2022-09-01T04:12:09.127Z,10.89
2022-09-01T04:14:40.958Z,9.80
2022-09-01T04:17:30.467Z,10.01
2022-09-01T04:19:59.058Z,11.19
2022-09-01T04:22:32.155Z,9.99
2022-09-01T04:25:00.777Z,11.95
2022-09-01T04:27:30.249Z,8.89
2022-09-01T04:30:01.556Z,11.04
2022-09-01T04:32:32.594Z,11.89
2022-09-01T04:35:04.209Z,9.36
2022-09-01T04:37:33.106Z,8.17
2022-09-01T04:40:05.039Z,9.97
2022-09-01T04:42:33.928Z,10.66
2022-09-01T04:45:11.320Z,8.05
2022-09-01T04:47:45.511Z,10.59
2022-09-01T04:50:18.231Z,9.57
2022-09-01T04:53:11.964Z,10.41
2022-09-01T04:55:44.442Z,10.34
2022-09-01T04:58:18.815Z,9.07
2022-09-01T05:00:52.234Z,9.84
2022-09-01T05:03:24.246Z,11.78
2022-09-01T05:05:57.423Z,9.19
2022-09-01T05:08:25.807Z,11.84
2022-09-01T05:10:58.259Z,8.33
2022-09-01T05:13:35.445Z,10.73
2022-09-01T05:16:13.373Z,10.73
2022-09-01T05:18:47.483Z,8.63
2022-09-01T05:21:22.547Z,11.95
2022-09-01T05:23:52.014Z,10.59
2022-09-01T05:26:24.233Z,12.08
2022-09-01T05:28:55.819Z,11.86
2022-09-01T05:31:28.069Z,12.39
2022-09-01T05:33:58.222Z,13.38
2022-09-01T05:36:26.897Z,14.23
2022-09-01T05:38:57.156Z,12.72
2022-09-01T05:41:26.028Z,13.82
2022-09-01T05:44:00.041Z,14.43
2022-09-01T05:46:31.017Z,16.11
2022-09-01T05:49:00.174Z,17.02
2022-09-01T05:51:44.501Z,17.73
2022-09-01T05:54:16.378Z,17.22
2022-09-01T05:56:45.270Z,18.36
2022-09-01T05:59:25.156Z,18.59
2022-09-01T06:02:00.913Z,19.76
2022-09-01T06:04:29.978Z,20.57
2022-09-01T06:07:11.919Z,22.08
2022-09-01T06:09:47.633Z,22.60
2022-09-01T06:12:21.739Z,23.68
2022-09-01T06:14:53.195Z,24.27
2022-09-01T06:17:27.120Z,23.15
2022-09-01T06:19:58.724Z,25.66
2022-09-01T06:22:29.162Z,26.42
2022-09-01T06:25:02.636Z,27.00
2022-09-01T06:27:34.368Z,27.78
2022-09-01T06:30:06.611Z,28.18
2022-09-01T06:33:15.875Z,27.07
2022-09-01T06:36:35.043Z,29.85
2022-09-01T06:42:37.993Z,30.02
2022-09-01T06:45:19.807Z,29.25
2022-09-01T06:47:52.611Z,30.97
2022-09-01T06:51:20.883Z,32.92
2022-09-01T06:53:56.541Z,34.21
2022-09-01T06:56:31.980Z,34.52
2022-09-01T06:59:05.084Z,35.34
2022-09-01T07:01:35.669Z,35.56
2022-09-01T07:04:12.474Z,36.07
2022-09-01T07:10:05.940Z,37.40
2022-09-01T07:13:05.558Z,37.19
2022-09-01T07:16:31.959Z,38.64
2022-09-01T07:18:27.305Z,38.99
2022-09-01T07:21:09.387Z,39.44
2022-09-01T07:24:06.033Z,39.57
2022-09-01T07:26:46.727Z,39.91
2022-09-01T07:29:16.927Z,39.77
2022-09-01T07:34:47.891Z,40.77
2022-09-01T07:43:33.447Z,41.74
2022-09-01T07:49:29.550Z,40.53
2022-09-01T07:51:59.763Z,39.35
2022-09-01T07:54:31.562Z,39.20
2022-09-01T07:57:00.344Z,40.72
2022-09-01T07:59:29.913Z,40.56
2022-09-01T08:02:06.139Z,41.08
2022-09-01T08:04:44.616Z,40.98
2022-09-01T08:07:16.780Z,40.62
2022-09-01T08:09:47.334Z,39.88
2022-09-01T08:12:17.073Z,42.07
2022-09-01T08:17:52.013Z,42.83
2022-09-01T08:20:21.927Z,42.94
2022-09-01T08:22:55.327Z,44.31
2022-09-01T08:25:27.811Z,44.65
2022-09-01T08:28:00.336Z,44.38
2022-09-01T08:30:30.013Z,44.89
2022-09-01T08:32:58.413Z,43.44
2022-09-01T08:35:27.710Z,45.47
2022-09-01T08:38:06.760Z,45.33
2022-09-01T08:40:36.871Z,45.70
2022-09-01T08:43:15.852Z,45.58
2022-09-01T08:45:49.913Z,45.33
2022-09-01T08:49:09.818Z,45.77
2022-09-01T08:51:20.028Z,46.06
2022-09-01T08:54:12.188Z,47.27
2022-09-01T08:56:43.840Z,47.50
2022-09-01T08:59:15.018Z,47.44
2022-09-01T09:02:22.484Z,47.57
2022-09-01T09:05:00.832Z,47.09
2022-09-01T09:07:44.182Z,47.63
2022-09-01T09:10:18.169Z,47.55
2022-09-01T09:12:59.704Z,48.89
2022-09-01T09:15:37.304Z,49.59
2022-09-01T09:18:27.131Z,48.56
2022-09-01T09:21:20.276Z,49.65
2022-09-01T09:23:56.044Z,50.63
2022-09-01T09:26:24.220Z,50.42
2022-09-01T09:28:55.486Z,51.37
2022-09-01T09:31:43.160Z,51.48
2022-09-01T09:34:32.501Z,51.04
2022-09-01T09:37:17.543Z,50.76
2022-09-01T09:39:45.871Z,50.60
2022-09-01T09:42:16.092Z,51.02
2022-09-01T09:44:53.031Z,48.52
2022-09-01T09:47:44.909Z,50.87
2022-09-01T09:50:26.989Z,50.33
2022-09-01T09:53:14.134Z,49.72
2022-09-01T09:56:25.954Z,50.10
2022-09-01T09:59:56.664Z,51.08
2022-09-01T10:02:34.748Z,50.54
2022-09-01T10:05:22.477Z,50.64
2022-09-01T10:07:50.657Z,50.69
2022-09-01T10:10:37.563Z,51.07
2022-09-01T10:13:06.516Z,49.22
2022-09-01T10:15:57.241Z,48.49
2022-09-01T10:18:34.196Z,49.55
2022-09-01T10:21:09.315Z,49.44
2022-09-01T10:23:38.747Z,46.50
2022-09-01T10:26:12.868Z,47.20
2022-09-01T10:28:49.915Z,46.18
2022-09-01T10:31:19.858Z,45.76
2022-09-01T10:33:50.959Z,47.16
2022-09-01T10:36:24.424Z,47.78
2022-09-01T10:38:58.768Z,49.15
2022-09-01T10:42:00.805Z,48.23
2022-09-01T10:44:34.361Z,47.70
2022-09-01T10:47:13.603Z,46.49
2022-09-01T10:50:01.483Z,46.86
2022-09-01T10:52:59.485Z,48.07
2022-09-01T10:55:33.319Z,48.58
2022-09-01T11:01:16.975Z,48.77
2022-09-01T11:03:56.856Z,48.68
2022-09-01T11:07:13.556Z,49.03
2022-09-01T11:09:48.491Z,50.29
2022-09-01T11:12:42.071Z,50.78
2022-09-01T11:15:36.174Z,51.59
2022-09-01T11:18:09.704Z,52.22
2022-09-01T11:20:39.656Z,51.63
2022-09-01T11:23:14.851Z,51.46
2022-09-01T11:25:45.827Z,50.68
2022-09-01T11:28:40.932Z,50.65
2022-09-01T11:31:28.752Z,50.25
2022-09-01T11:34:08.226Z,50.36
2022-09-01T11:36:39.610Z,49.33
2022-09-01T11:39:37.014Z,48.99
2022-09-01T11:42:19.221Z,45.67
2022-09-01T11:44:52.310Z,46.37
2022-09-01T11:47:28.113Z,46.56
2022-09-01T11:49:58.561Z,46.31
2022-09-01T11:52:31.108Z,46.11
2022-09-01T11:55:01.066Z,45.95
2022-09-01T11:57:31.852Z,45.31
2022-09-01T12:00:02.210Z,44.13
2022-09-01T12:02:46.565Z,42.13
2022-09-01T12:05:31.227Z,40.08
2022-09-01T12:07:59.912Z,38.54
2022-09-01T12:10:34.833Z,36.71
2022-09-01T12:13:08.517Z,36.03
2022-09-01T12:15:54.931Z,35.64
2022-09-01T12:18:43.920Z,34.81
2022-09-01T12:21:22.058Z,34.41
2022-09-01T12:23:50.528Z,33.96
2022-09-01T12:26:24.648Z,32.89
2022-09-01T12:29:00.358Z,33.24
2022-09-01T12:31:38.853Z,32.86
2022-09-01T12:34:25.346Z,32.25
2022-09-01T12:37:05.903Z,31.34
2022-09-01T12:39:35.929Z,30.39
2022-09-01T12:42:09.201Z,29.15
2022-09-01T12:44:46.925Z,28.00
2022-09-01T12:47:36.544Z,30.13
2022-09-01T12:50:07.130Z,30.02
2022-09-01T12:52:36.532Z,29.96
2022-09-01T12:55:47.413Z,29.90
2022-09-01T12:58:07.464Z,28.36
2022-09-01T13:00:39.526Z,29.00
2022-09-01T13:03:14.126Z,28.67
2022-09-01T13:05:43.187Z,29.18
2022-09-01T13:08:13.740Z,28.10
2022-09-01T13:10:44.450Z,29.02
2022-09-01T13:13:14.714Z,28.77
2022-09-01T13:15:47.999Z,29.16
2022-09-01T13:18:15.863Z,28.85
2022-09-01T13:20:44.443Z,28.72
2022-09-01T13:23:13.009Z,28.84
2022-09-01T13:25:44.193Z,28.91
2022-09-01T13:28:14.143Z,28.75
2022-09-01T13:30:44.005Z,28.68
2022-09-01T13:33:28.406Z,27.51
2022-09-01T13:35:56.569Z,28.10
2022-09-01T13:38:24.487Z,27.94
2022-09-01T13:40:52.888Z,27.84
2022-09-01T13:43:26.963Z,27.83
2022-09-01T13:46:06.779Z,27.83
2022-09-01T13:49:41.346Z,26.75
2022-09-01T13:51:37.504Z,25.71
2022-09-01T13:54:05.584Z,26.32
2022-09-01T13:56:35.249Z,27.51
2022-09-01T13:59:04.575Z,25.14
2022-09-01T14:02:27.007Z,27.78
2022-09-01T14:04:59.339Z,27.88
2022-09-01T14:07:30.016Z,27.97
2022-09-01T14:10:01.479Z,28.05
2022-09-01T14:12:30.212Z,28.08
2022-09-01T14:15:18.613Z,28.14
2022-09-01T14:17:50.895Z,28.15
2022-09-01T14:20:21.638Z,28.69
2022-09-01T14:22:52.015Z,28.76
2022-09-01T14:25:21.066Z,28.49
2022-09-01T14:27:49.846Z,28.16
2022-09-01T14:30:22.263Z,27.89
2022-09-01T14:32:50.737Z,27.67
2022-09-01T14:35:20.343Z,27.62
2022-09-01T14:37:48.291Z,27.61
2022-09-01T14:40:18.144Z,27.44
2022-09-01T14:42:49.406Z,27.40
2022-09-01T14:45:20.776Z,27.41
2022-09-01T14:47:49.997Z,27.50
2022-09-01T14:50:22.734Z,27.75
2022-09-01T14:52:53.743Z,27.61
2022-09-01T14:55:22.745Z,27.40
2022-09-01T14:57:50.816Z,27.10
2022-09-01T15:00:20.972Z,26.36
2022-09-01T15:02:49.628Z,27.05
2022-09-01T15:05:17.604Z,26.86
2022-09-01T15:07:45.560Z,26.66
2022-09-01T15:10:24.755Z,26.47
2022-09-01T15:12:55.395Z,26.28
2022-09-01T15:15:25.519Z,26.13
2022-09-01T15:17:54.397Z,26.01
2022-09-01T15:20:40.607Z,25.96
2022-09-01T15:23:09.185Z,25.86
2022-09-01T15:25:37.052Z,25.81
2022-09-01T15:28:06.021Z,25.81
2022-09-01T15:30:39.763Z,25.70
2022-09-01T15:33:14.692Z,25.75
2022-09-01T15:35:50.024Z,25.45
2022-09-01T15:38:18.350Z,25.61
2022-09-01T15:40:57.250Z,25.30
2022-09-01T15:43:27.739Z,25.54
2022-09-01T15:46:01.895Z,25.37
2022-09-01T15:48:33.139Z,25.43
2022-09-01T15:51:27.511Z,25.61
2022-09-01T15:53:57.595Z,25.59
2022-09-01T15:56:25.382Z,25.53
2022-09-01T15:59:01.483Z,25.45
2022-09-01T16:01:33.296Z,25.42
2022-09-01T16:04:02.098Z,25.45
2022-09-01T16:06:30.401Z,25.43
2022-09-01T16:08:58.845Z,25.45
2022-09-01T16:11:27.493Z,25.53
2022-09-01T16:13:55.811Z,25.61
2022-09-01T16:16:45.325Z,25.74
2022-09-01T16:19:24.903Z,25.83
2022-09-01T16:21:59.704Z,25.94
2022-09-01T16:24:28.181Z,25.99
2022-09-01T16:26:57.441Z,25.99
2022-09-01T16:29:34.415Z,26.02
2022-09-01T16:32:03.996Z,26.07
2022-09-01T16:34:33.015Z,26.11
2022-09-01T16:37:06.582Z,26.18
2022-09-01T16:39:44.904Z,26.16
2022-09-01T16:42:25.530Z,26.07
2022-09-01T16:45:02.884Z,26.07
2022-09-01T16:47:45.665Z,26.07
2022-09-01T16:50:28.007Z,26.13
2022-09-01T16:53:07.465Z,26.17
2022-09-01T16:55:41.378Z,25.93
2022-09-01T16:58:18.770Z,26.00
2022-09-01T17:00:59.470Z,25.86
2022-09-01T17:03:43.009Z,25.70
2022-09-01T17:06:18.074Z,25.52
2022-09-01T17:09:03.372Z,25.33
2022-09-01T17:11:39.183Z,25.18
2022-09-01T17:14:11.944Z,24.95
2022-09-01T17:16:45.032Z,24.89
2022-09-01T17:19:21.097Z,24.76
2022-09-01T17:22:07.851Z,24.64
2022-09-01T17:24:39.471Z,24.53
2022-09-01T17:27:15.364Z,24.45
2022-09-01T17:29:49.820Z,24.34
2022-09-01T17:32:39.267Z,24.24
2022-09-01T17:35:17.857Z,24.06
2022-09-01T17:38:05.254Z,23.95
2022-09-01T17:40:56.617Z,23.96
2022-09-01T17:43:31.647Z,23.71
2022-09-01T17:46:10.133Z,23.77
2022-09-01T17:48:44.479Z,23.53
2022-09-01T17:51:23.734Z,23.53
2022-09-01T17:54:03.024Z,23.48
2022-09-01T17:56:42.329Z,23.18
2022-09-01T17:59:17.748Z,23.08
2022-09-01T18:01:58.926Z,22.78
2022-09-01T18:04:52.362Z,22.60
2022-09-01T18:07:35.542Z,22.39
2022-09-01T18:10:06.404Z,22.15
2022-09-01T18:12:38.411Z,21.96
2022-09-01T18:15:10.158Z,21.80
2022-09-01T18:17:41.303Z,21.65
2022-09-01T18:20:13.162Z,21.26
2022-09-01T18:22:48.176Z,21.31
2022-09-01T18:25:20.210Z,21.16
2022-09-01T18:27:48.146Z,20.95
2022-09-01T18:30:26.181Z,20.85
2022-09-01T18:33:14.497Z,20.60
2022-09-01T18:35:47.911Z,20.54
2022-09-01T18:38:34.552Z,20.33
2022-09-01T18:41:25.826Z,20.14
2022-09-01T18:44:01.380Z,19.96
2022-09-01T18:46:37.139Z,19.98
2022-09-01T18:49:15.626Z,19.84
2022-09-01T18:52:00.196Z,19.68
2022-09-01T18:54:36.512Z,19.57
2022-09-01T18:57:05.946Z,19.44
2022-09-01T18:59:59.837Z,19.33
2022-09-01T19:02:40.896Z,19.17
2022-09-01T19:05:20.999Z,19.15
2022-09-01T19:07:55.964Z,19.07
2022-09-01T19:10:31.624Z,18.57
2022-09-01T19:13:09.716Z,18.90
2022-09-01T19:15:46.079Z,18.76
2022-09-01T19:18:24.826Z,18.73
2022-09-01T19:20:56.145Z,18.65
2022-09-01T19:23:35.542Z,18.48
2022-09-01T19:26:11.490Z,18.51
2022-09-01T19:28:44.688Z,18.47
2022-09-01T19:31:22.137Z,18.41
2022-09-01T19:33:53.193Z,18.36
2022-09-01T19:36:26.611Z,18.32
2022-09-01T19:38:55.094Z,18.29
2022-09-01T19:41:29.648Z,18.24
2022-09-01T19:44:08.048Z,18.20
2022-09-01T19:46:41.949Z,17.97
2022-09-01T19:49:18.563Z,18.13
2022-09-01T19:51:52.111Z,18.08
2022-09-01T19:54:27.680Z,16.82
2022-09-01T19:57:01.905Z,18.02
2022-09-01T19:59:50.856Z,17.99
2022-09-01T20:02:25.721Z,17.95
2022-09-01T20:05:01.130Z,17.91
2022-09-01T20:07:37.174Z,17.90
2022-09-01T20:10:18.308Z,17.81
2022-09-01T20:12:55.847Z,17.70
2022-09-01T20:15:33.240Z,17.80
2022-09-01T20:18:06.313Z,17.31
2022-09-01T20:20:40.066Z,17.68
2022-09-01T20:23:16.721Z,17.64
2022-09-01T20:25:49.496Z,17.60
2022-09-01T20:28:26.562Z,17.51
2022-09-01T20:31:00.826Z,17.59
2022-09-01T20:33:37.207Z,17.57
2022-09-01T20:36:10.353Z,17.56
2022-09-01T20:39:05.125Z,17.55
2022-09-01T20:41:39.756Z,17.16
2022-09-01T20:44:16.960Z,17.56
2022-09-01T20:46:47.396Z,17.64
2022-09-01T20:49:16.902Z,17.71
2022-09-01T20:51:49.019Z,17.71
2022-09-01T20:54:26.583Z,17.70
2022-09-01T20:57:04.421Z,17.57
2022-09-01T20:59:42.326Z,17.35
2022-09-01T21:02:32.714Z,17.68
2022-09-01T21:05:10.782Z,17.67
2022-09-01T21:07:45.896Z,17.66
2022-09-01T21:10:22.050Z,17.62
2022-09-01T21:12:53.004Z,17.38
2022-09-01T21:15:36.053Z,17.55
2022-09-01T21:18:15.366Z,17.51
2022-09-01T21:20:53.783Z,17.49
2022-09-01T21:23:21.692Z,17.42
2022-09-01T21:25:50.196Z,17.43
2022-09-01T21:28:21.437Z,17.42
2022-09-01T21:30:53.999Z,17.00
2022-09-01T21:33:22.153Z,17.32
2022-09-01T21:35:50.086Z,17.28
2022-09-01T21:38:18.206Z,17.15
2022-09-01T21:40:46.523Z,17.08
2022-09-01T21:43:17.642Z,17.24
2022-09-01T21:45:45.745Z,16.96
2022-09-01T21:48:15.371Z,17.33
2022-09-01T21:50:43.310Z,17.31
2022-09-01T21:53:13.718Z,17.21
2022-09-01T21:55:41.622Z,17.37
2022-09-01T21:58:09.893Z,17.42
2022-09-01T22:00:40.272Z,17.17
2022-09-01T22:03:08.868Z,17.51
2022-09-01T22:05:41.760Z,17.51
2022-09-01T22:08:12.061Z,17.38
2022-09-01T22:10:44.540Z,17.34
2022-09-01T22:13:13.527Z,17.56
2022-09-01T22:15:43.904Z,17.58
2022-09-01T22:18:12.720Z,17.42
2022-09-01T22:20:42.643Z,17.60
2022-09-01T22:23:11.685Z,17.59
2022-09-01T22:25:42.432Z,17.57
2022-09-01T22:28:10.980Z,17.38
2022-09-01T22:30:45.065Z,17.47
2022-09-01T22:33:12.893Z,17.44
2022-09-01T22:35:43.156Z,17.45
2022-09-01T22:38:11.519Z,17.30
2022-09-01T22:40:44.972Z,17.36
2022-09-01T22:43:16.586Z,17.34
2022-09-01T22:45:45.303Z,17.24
2022-09-01T22:48:13.787Z,17.32
2022-09-01T22:50:44.675Z,17.31
2022-09-01T22:53:15.027Z,17.29
2022-09-01T22:55:48.012Z,17.25
2022-09-01T22:58:17.524Z,17.18
2022-09-01T23:00:47.737Z,17.11
2022-09-01T23:03:15.826Z,17.05
2022-09-01T23:05:45.307Z,16.98
2022-09-01T23:08:13.634Z,16.91
2022-09-01T23:10:41.831Z,16.83
2022-09-01T23:13:10.314Z,16.80
2022-09-01T23:15:38.902Z,16.74
2022-09-01T23:18:06.798Z,16.71
2022-09-01T23:20:34.629Z,16.69
2022-09-01T23:23:04.103Z,16.63
2022-09-01T23:25:31.845Z,16.53
2022-09-01T23:27:59.570Z,16.46
2022-09-01T23:30:27.335Z,16.39
2022-09-01T23:32:55.123Z,16.31
2022-09-01T23:35:23.008Z,16.25
2022-09-01T23:37:50.728Z,15.57
2022-09-01T23:40:20.291Z,16.15
2022-09-01T23:42:48.167Z,16.07
2022-09-01T23:45:15.939Z,16.02
2022-09-01T23:47:43.698Z,15.97
2022-09-01T23:50:12.184Z,15.94
2022-09-01T23:52:40.353Z,15.60
2022-09-01T23:55:08.995Z,15.85
2022-09-01T23:57:38.094Z,15.82
